Time,TemperatureF,DewpointF,PressureIn,WindDirection,WindDirectionDegrees,WindSpeedMPH,WindSpeedGustMPH,Humidity,HourlyPrecipIn,Conditions,Clouds,dailyrainin,SoftwareType,DateUTC
2013-02-21 00:01:00,44.0,44.0,30.17,NNE,15,10.0,11.0,100,0.00,,,0.26,,2013-02-21 08:01:00,
2013-02-21 00:11:00,44.0,43.0,30.18,NW,324,7.0,12.0,98,0.00,,,0.26,,2013-02-21 08:11:00,
2013-02-21 00:21:00,44.0,43.0,30.18,NW,324,7.0,12.0,98,0.00,,,0.26,,2013-02-21 08:21:00,
2013-02-21 00:31:00,44.0,43.0,30.18,North,357,6.0,12.0,97,0.00,,,0.26,,2013-02-21 08:31:00,
2013-02-21 00:41:00,44.0,43.0,30.18,North,357,6.0,12.0,97,0.00,,,0.26,,2013-02-21 08:41:00,
2013-02-21 00:52:00,44.0,42.0,30.19,North,1,6.0,12.0,92,0.00,,,0.26,,2013-02-21 08:52:00,
2013-02-21 01:01:00,44.0,42.0,30.18,North,0,0.0,0.0,92,0.00,,,0.26,,2013-02-21 09:01:00,
2013-02-21 01:11:00,44.0,42.0,30.18,North,0,0.0,0.0,92,0.00,,,0.26,,2013-02-21 09:11:00,
2013-02-21 01:22:00,44.0,42.0,30.19,West,264,5.0,8.0,93,0.00,,,0.26,,2013-02-21 09:22:00,
2013-02-21 01:31:00,43.0,41.0,30.19,North,352,1.0,10.0,93,0.01,,,0.27,,2013-02-21 09:31:00,
2013-02-21 01:42:00,43.0,41.0,30.20,North,0,0.0,5.0,94,0.01,,,0.27,,2013-02-21 09:42:00,
2013-02-21 01:52:00,43.0,41.0,30.20,North,0,0.0,5.0,94,0.01,,,0.27,,2013-02-21 09:52:00,
2013-02-21 02:01:00,43.0,42.0,30.20,North,5,4.0,6.0,95,0.01,,,0.27,,2013-02-21 10:01:00,
2013-02-21 02:11:00,43.0,42.0,30.20,North,5,4.0,6.0,95,0.01,,,0.27,,2013-02-21 10:11:00,
2013-02-21 02:21:00,44.0,42.0,30.22,NNW,333,6.0,10.0,94,0.01,,,0.27,,2013-02-21 10:21:00,
2013-02-21 02:31:00,44.0,42.0,30.22,NW,312,7.0,10.0,93,0.00,,,0.27,,2013-02-21 10:31:00,
2013-02-21 02:41:00,44.0,42.0,30.22,NW,312,7.0,10.0,93,0.00,,,0.27,,2013-02-21 10:41:00,
2013-02-21 02:51:00,44.0,41.0,30.21,North,5,5.0,7.0,90,0.00,,,0.27,,2013-02-21 10:51:00,
2013-02-21 03:00:00,44.0,41.0,30.22,NW,312,7.0,9.0,89,0.00,,,0.27,,2013-02-21 11:00:00,
2013-02-21 03:10:00,44.0,41.0,30.22,NW,312,7.0,9.0,89,0.00,,,0.27,,2013-02-21 11:10:00,
2013-02-21 03:20:00,44.0,40.0,30.22,WNW,302,4.0,6.0,87,0.00,,,0.27,,2013-02-21 11:20:00,
2013-02-21 03:31:00,44.0,40.0,30.22,West,271,2.0,7.0,87,0.00,,,0.27,,2013-02-21 11:31:00,
2013-02-21 03:41:00,44.0,40.0,30.22,West,271,2.0,7.0,87,0.00,,,0.27,,2013-02-21 11:41:00,
2013-02-21 03:51:00,44.0,40.0,30.22,NW,319,1.0,7.0,86,0.00,,,0.27,,2013-02-21 11:51:00,
2013-02-21 04:01:00,43.0,39.0,30.22,North,351,6.0,7.0,86,0.00,,,0.27,,2013-02-21 12:01:00,
2013-02-21 04:11:00,43.0,40.0,30.22,North,0,3.0,11.0,89,0.00,,,0.27,,2013-02-21 12:11:00,
2013-02-21 04:21:00,43.0,40.0,30.22,North,0,3.0,11.0,89,0.00,,,0.27,,2013-02-21 12:21:00,
2013-02-21 04:32:00,43.0,41.0,30.21,North,0,0.0,8.0,91,0.00,,,0.27,,2013-02-21 12:32:00,
2013-02-21 04:42:00,42.0,40.0,30.22,North,0,0.0,8.0,91,0.00,,,0.27,,2013-02-21 12:42:00,
2013-02-21 04:52:00,42.0,40.0,30.22,North,0,0.0,8.0,91,0.00,,,0.27,,2013-02-21 12:52:00,
2013-02-21 05:01:00,40.0,38.0,30.22,North,0,0.0,0.0,93,0.00,,,0.27,,2013-02-21 13:01:00,
2013-02-21 05:11:00,40.0,39.0,30.22,West,259,3.0,8.0,95,0.00,,,0.27,,2013-02-21 13:11:00,
2013-02-21 05:22:00,40.0,39.0,30.22,West,259,3.0,8.0,95,0.00,,,0.27,,2013-02-21 13:22:00,
2013-02-21 05:31:00,42.0,40.0,30.23,WSW,253,3.0,8.0,93,0.00,,,0.27,,2013-02-21 13:31:00,
2013-02-21 05:41:00,43.0,40.0,30.24,NNW,337,2.0,9.0,90,0.00,,,0.27,,2013-02-21 13:41:00,
2013-02-21 05:52:00,43.0,40.0,30.24,NNW,337,2.0,9.0,90,0.00,,,0.27,,2013-02-21 13:52:00,
2013-02-21 06:01:00,44.0,41.0,30.24,West,273,7.0,10.0,89,0.00,,,0.27,,2013-02-21 14:01:00,
2013-02-21 06:11:00,44.0,41.0,30.24,West,273,7.0,10.0,89,0.00,,,0.27,,2013-02-21 14:11:00,
2013-02-21 06:21:00,42.0,39.0,30.24,North,0,0.0,0.0,90,0.00,,,0.27,,2013-02-21 14:21:00,
2013-02-21 06:31:00,41.0,39.0,30.24,North,352,3.0,3.0,91,0.00,,,0.27,,2013-02-21 14:31:00,
2013-02-21 06:41:00,42.0,40.0,30.25,West,263,5.0,8.0,91,0.00,,,0.27,,2013-02-21 14:41:00,
2013-02-21 06:52:00,42.0,40.0,30.25,West,263,5.0,8.0,91,0.00,,,0.27,,2013-02-21 14:52:00,
2013-02-21 07:01:00,43.0,40.0,30.24,West,275,5.0,8.0,89,0.00,,,0.27,,2013-02-21 15:01:00,
2013-02-21 07:11:00,44.0,40.0,30.24,WSW,250,5.0,8.0,87,0.00,,,0.27,,2013-02-21 15:11:00,
2013-02-21 07:21:00,44.0,40.0,30.24,WSW,250,5.0,8.0,87,0.00,,,0.27,,2013-02-21 15:21:00,
2013-02-21 07:31:00,44.0,41.0,30.25,SW,228,8.0,9.0,88,0.00,,,0.27,,2013-02-21 15:31:00,
2013-02-21 07:41:00,44.0,41.0,30.25,SW,228,8.0,9.0,88,0.00,,,0.27,,2013-02-21 15:41:00,
2013-02-21 07:52:00,44.0,41.0,30.26,West,268,10.0,14.0,89,0.00,,,0.27,,2013-02-21 15:52:00,
2013-02-21 08:01:00,43.0,40.0,30.27,West,266,8.0,14.0,90,0.01,,,0.27,,2013-02-21 16:01:00,
2013-02-21 08:12:00,43.0,41.0,30.27,NW,306,5.0,12.0,91,0.01,,,0.27,,2013-02-21 16:12:00,
2013-02-21 08:21:00,43.0,41.0,30.27,NW,306,5.0,12.0,91,0.01,,,0.27,,2013-02-21 16:21:00,
2013-02-21 08:31:00,42.0,40.0,30.27,West,266,7.0,8.0,91,0.01,,,0.28,,2013-02-21 16:31:00,
2013-02-21 08:41:00,43.0,41.0,30.27,WSW,242,7.0,11.0,91,0.01,,,0.28,,2013-02-21 16:41:00,
2013-02-21 08:52:00,43.0,41.0,30.27,WSW,242,7.0,11.0,91,0.01,,,0.28,,2013-02-21 16:52:00,
2013-02-21 09:01:00,42.0,40.0,30.27,West,263,7.0,13.0,92,0.01,,,0.28,,2013-02-21 17:01:00,
2013-02-21 09:11:00,42.0,40.0,30.28,West,267,5.0,10.0,94,0.01,,,0.28,,2013-02-21 17:11:00,
2013-02-21 09:21:00,42.0,40.0,30.28,West,267,5.0,10.0,94,0.01,,,0.28,,2013-02-21 17:21:00,
2013-02-21 09:32:00,42.0,41.0,30.27,West,261,7.0,9.0,95,0.02,,,0.30,,2013-02-21 17:32:00,
2013-02-21 09:41:00,42.0,41.0,30.27,West,261,7.0,9.0,95,0.02,,,0.30,,2013-02-21 17:41:00,
2013-02-21 09:52:00,43.0,42.0,30.28,WSW,247,8.0,13.0,96,0.02,,,0.30,,2013-02-21 17:52:00,
2013-02-21 10:01:00,43.0,42.0,30.29,WNW,289,7.0,13.0,97,0.03,,,0.30,,2013-02-21 18:01:00,
2013-02-21 10:11:00,43.0,42.0,30.29,West,264,7.0,9.0,97,0.04,,,0.30,,2013-02-21 18:11:00,
2013-02-21 10:21:00,43.0,42.0,30.29,West,264,7.0,9.0,97,0.04,,,0.30,,2013-02-21 18:21:00,
2013-02-21 10:31:00,43.0,42.0,30.28,West,260,10.0,10.0,97,0.04,,,0.34,,2013-02-21 18:31:00,
2013-02-21 10:42:00,43.0,42.0,30.28,West,260,10.0,10.0,97,0.04,,,0.34,,2013-02-21 18:42:00,
2013-02-21 10:51:00,43.0,42.0,30.28,WSW,243,10.0,11.0,97,0.05,,,0.34,,2013-02-21 18:51:00,
2013-02-21 11:01:00,43.0,42.0,30.28,West,274,10.0,12.0,98,0.04,,,0.34,,2013-02-21 19:01:00,
2013-02-21 11:11:00,43.0,42.0,30.28,West,274,10.0,12.0,98,0.04,,,0.34,,2013-02-21 19:11:00,
2013-02-21 11:21:00,43.0,42.0,30.28,West,261,10.0,13.0,98,0.03,,,0.34,,2013-02-21 19:21:00,
2013-02-21 11:31:00,43.0,42.0,30.29,SW,228,8.0,13.0,98,0.03,,,0.32,,2013-02-21 19:31:00,
2013-02-21 11:41:00,43.0,42.0,30.29,SW,228,8.0,13.0,98,0.03,,,0.32,,2013-02-21 19:41:00,
2013-02-21 11:51:00,43.0,43.0,30.27,SSE,165,8.0,13.0,99,0.05,,,0.32,,2013-02-21 19:51:00,
2013-02-21 12:01:00,43.0,43.0,30.25,SSE,166,9.0,13.0,100,0.04,,,0.32,,2013-02-21 20:01:00,
2013-02-21 12:11:00,43.0,43.0,30.26,SSE,154,4.0,12.0,100,0.04,,,0.32,,2013-02-21 20:11:00,
2013-02-21 12:21:00,43.0,43.0,30.26,SSE,154,4.0,12.0,100,0.04,,,0.32,,2013-02-21 20:21:00,
2013-02-21 12:31:00,44.0,44.0,30.26,SW,228,5.0,9.0,100,0.01,,,0.35,,2013-02-21 20:31:00,
2013-02-21 12:41:00,44.0,44.0,30.26,SW,228,5.0,9.0,100,0.01,,,0.35,,2013-02-21 20:41:00,
2013-02-21 12:52:00,44.0,44.0,30.26,SW,218,4.0,8.0,100,0.00,,,0.35,,2013-02-21 20:52:00,
2013-02-21 13:02:00,45.0,45.0,30.26,SW,215,9.0,14.0,99,0.00,,,0.35,,2013-02-21 21:02:00,
2013-02-21 13:11:00,44.0,44.0,30.25,West,273,10.0,16.0,99,0.00,,,0.35,,2013-02-21 21:11:00,
2013-02-21 13:21:00,44.0,44.0,30.25,West,273,10.0,16.0,99,0.00,,,0.35,,2013-02-21 21:21:00,
2013-02-21 13:31:00,44.0,43.0,30.25,West,261,12.0,23.0,98,0.00,,,0.33,,2013-02-21 21:31:00,
2013-02-21 13:41:00,44.0,43.0,30.25,SSW,212,14.0,18.0,98,0.00,,,0.33,,2013-02-21 21:41:00,
2013-02-21 13:52:00,44.0,43.0,30.25,SSW,212,14.0,18.0,98,0.00,,,0.33,,2013-02-21 21:52:00,
2013-02-21 14:01:00,44.0,43.0,30.24,SW,226,16.0,23.0,97,0.00,,,0.33,,2013-02-21 22:01:00,
2013-02-21 14:11:00,44.0,43.0,30.24,SW,226,16.0,23.0,97,0.00,,,0.33,,2013-02-21 22:11:00,
2013-02-21 14:21:00,44.0,43.0,30.25,SSW,211,14.0,20.0,97,0.00,,,0.33,,2013-02-21 22:21:00,
2013-02-21 14:31:00,45.0,44.0,30.24,WSW,246,12.0,22.0,97,0.00,,,0.33,,2013-02-21 22:31:00,
2013-02-21 14:41:00,45.0,44.0,30.24,WSW,253,12.0,22.0,97,0.00,,,0.33,,2013-02-21 22:41:00,
2013-02-21 14:52:00,45.0,44.0,30.24,WSW,253,12.0,22.0,97,0.00,,,0.33,,2013-02-21 22:52:00,
2013-02-21 15:01:00,45.0,44.0,30.23,SW,233,14.0,20.0,97,0.00,,,0.33,,2013-02-21 23:01:00,
2013-02-21 15:11:00,45.0,44.0,30.23,SW,233,14.0,20.0,97,0.00,,,0.33,,2013-02-21 23:11:00,
2013-02-21 15:21:00,45.0,44.0,30.23,WSW,250,7.0,20.0,97,0.00,,,0.33,,2013-02-21 23:21:00,
2013-02-21 15:31:00,45.0,44.0,30.22,SSW,203,16.0,23.0,97,0.00,,,0.32,,2013-02-21 23:31:00,
2013-02-21 15:41:00,45.0,44.0,30.22,SSW,203,16.0,23.0,97,0.00,,,0.32,,2013-02-21 23:41:00,
2013-02-21 15:52:00,45.0,44.0,30.21,SW,225,11.0,20.0,98,0.00,,,0.32,,2013-02-21 23:52:00,
2013-02-21 16:01:00,45.0,45.0,30.21,West,260,10.0,22.0,99,0.00,,,0.32,,2013-02-22 00:01:00,
2013-02-21 16:11:00,45.0,45.0,30.21,West,260,10.0,22.0,99,0.00,,,0.32,,2013-02-22 00:11:00,
2013-02-21 16:21:00,45.0,45.0,30.21,SW,229,17.0,22.0,100,0.01,,,0.33,,2013-02-22 00:21:00,
2013-02-21 16:31:00,44.0,44.0,30.21,SW,224,16.0,22.0,100,0.01,,,0.33,,2013-02-22 00:31:00,
2013-02-21 16:41:00,44.0,44.0,30.21,SW,224,16.0,22.0,100,0.01,,,0.33,,2013-02-22 00:41:00,
2013-02-21 16:52:00,44.0,44.0,30.22,WSW,253,14.0,23.0,100,0.02,,,0.33,,2013-02-22 00:52:00,
2013-02-21 17:01:00,44.0,44.0,30.22,SSW,196,11.0,16.0,100,0.06,,,0.33,,2013-02-22 01:01:00,
2013-02-21 17:11:00,44.0,44.0,30.22,SSW,196,11.0,16.0,100,0.06,,,0.33,,2013-02-22 01:11:00,
2013-02-21 17:21:00,44.0,44.0,30.22,SW,233,13.0,17.0,100,0.07,,,0.33,,2013-02-22 01:21:00,
2013-02-21 17:32:00,44.0,44.0,30.22,WSW,240,13.0,18.0,100,0.08,,,0.38,,2013-02-22 01:32:00,
2013-02-21 17:41:00,45.0,45.0,30.22,SW,232,10.0,11.0,100,0.09,,,0.38,,2013-02-22 01:41:00,
2013-02-21 17:51:00,45.0,45.0,30.22,SW,232,10.0,11.0,100,0.09,,,0.38,,2013-02-22 01:51:00,
2013-02-21 18:01:00,45.0,45.0,30.22,WSW,257,12.0,18.0,100,0.05,,,0.38,,2013-02-22 02:01:00,
2013-02-21 18:11:00,45.0,45.0,30.21,SSW,208,14.0,20.0,100,0.03,,,0.38,,2013-02-22 02:11:00,
2013-02-21 18:21:00,45.0,45.0,30.21,SSW,208,14.0,20.0,100,0.03,,,0.38,,2013-02-22 02:21:00,
2013-02-21 18:31:00,45.0,45.0,30.22,West,264,14.0,20.0,100,0.02,,,0.36,,2013-02-22 02:31:00,
2013-02-21 18:41:00,45.0,45.0,30.23,SW,231,13.0,17.0,100,0.00,,,0.36,,2013-02-22 02:41:00,
2013-02-21 18:52:00,45.0,45.0,30.23,SW,231,13.0,17.0,100,0.00,,,0.36,,2013-02-22 02:52:00,
2013-02-21 19:01:00,45.0,45.0,30.23,West,263,7.0,16.0,100,0.00,,,0.36,,2013-02-22 03:01:00,
2013-02-21 19:11:00,45.0,45.0,30.22,West,278,9.0,16.0,100,0.00,,,0.36,,2013-02-22 03:11:00,
2013-02-21 19:21:00,45.0,45.0,30.22,West,278,9.0,16.0,100,0.00,,,0.36,,2013-02-22 03:21:00,
2013-02-21 19:31:00,45.0,45.0,30.23,West,264,6.0,11.0,100,0.00,,,0.29,,2013-02-22 03:31:00,
2013-02-21 19:41:00,45.0,45.0,30.23,West,264,6.0,11.0,100,0.00,,,0.29,,2013-02-22 03:41:00,
2013-02-21 19:51:00,46.0,46.0,30.23,West,264,7.0,11.0,100,0.00,,,0.29,,2013-02-22 03:51:00,
2013-02-21 20:01:00,46.0,46.0,30.23,West,280,7.0,9.0,100,0.00,,,0.29,,2013-02-22 04:01:00,
2013-02-21 20:11:00,45.0,45.0,30.22,North,0,0.0,0.0,100,0.00,,,0.29,,2013-02-22 04:11:00,
2013-02-21 20:21:00,45.0,45.0,30.22,North,0,0.0,0.0,100,0.00,,,0.29,,2013-02-22 04:21:00,
2013-02-21 20:31:00,45.0,45.0,30.22,WSW,252,2.0,9.0,100,0.00,,,0.28,,2013-02-22 04:31:00,
2013-02-21 20:41:00,45.0,45.0,30.23,WSW,253,4.0,7.0,100,0.00,,,0.28,,2013-02-22 04:41:00,
2013-02-21 20:51:00,45.0,45.0,30.23,WSW,253,4.0,7.0,100,0.00,,,0.28,,2013-02-22 04:51:00,
2013-02-21 21:01:00,45.0,45.0,30.23,WSW,239,6.0,10.0,100,0.00,,,0.28,,2013-02-22 05:01:00,
2013-02-21 21:11:00,45.0,45.0,30.23,WSW,239,6.0,10.0,100,0.00,,,0.28,,2013-02-22 05:11:00,
2013-02-21 21:21:00,46.0,46.0,30.22,WSW,254,5.0,8.0,100,0.00,,,0.28,,2013-02-22 05:21:00,
2013-02-21 21:32:00,45.0,45.0,30.22,West,263,6.0,10.0,100,0.00,,,0.28,,2013-02-22 05:32:00,
2013-02-21 21:41:00,45.0,45.0,30.22,West,271,7.0,10.0,100,0.00,,,0.28,,2013-02-22 05:41:00,
2013-02-21 21:52:00,45.0,45.0,30.22,West,271,7.0,10.0,100,0.00,,,0.28,,2013-02-22 05:52:00,
2013-02-21 22:01:00,45.0,45.0,30.22,West,260,6.0,11.0,100,0.00,,,0.28,,2013-02-22 06:01:00,
2013-02-21 22:11:00,45.0,45.0,30.23,WNW,291,7.0,11.0,100,0.00,,,0.28,,2013-02-22 06:11:00,
2013-02-21 22:21:00,45.0,45.0,30.23,WNW,291,7.0,11.0,100,0.00,,,0.28,,2013-02-22 06:21:00,
2013-02-21 22:31:00,45.0,45.0,30.24,North,0,0.0,8.0,100,0.00,,,0.28,,2013-02-22 06:31:00,
2013-02-21 22:41:00,45.0,45.0,30.24,North,0,0.0,8.0,100,0.00,,,0.28,,2013-02-22 06:41:00,
2013-02-21 22:51:00,45.0,45.0,30.24,WSW,256,5.0,9.0,100,0.00,,,0.28,,2013-02-22 06:51:00,
2013-02-21 23:01:00,45.0,45.0,30.24,SW,217,5.0,9.0,100,0.00,,,0.28,,2013-02-22 07:01:00,
2013-02-21 23:11:00,45.0,45.0,30.24,West,280,6.0,7.0,100,0.00,,,0.28,,2013-02-22 07:11:00,
2013-02-21 23:21:00,45.0,45.0,30.24,West,280,6.0,7.0,100,0.00,,,0.28,,2013-02-22 07:21:00,
2013-02-21 23:31:00,45.0,45.0,30.24,West,275,5.0,9.0,100,0.00,,,0.25,,2013-02-22 07:31:00,
2013-02-21 23:42:00,45.0,45.0,30.24,WSW,253,6.0,7.0,100,0.00,,,0.25,,2013-02-22 07:42:00,
2013-02-21 23:51:00,45.0,45.0,30.24,WSW,253,6.0,7.0,100,0.00,,,0.25,,2013-02-22 07:51:00,